Time;durP1;ratioP1;P1;durP2;ratioP2;P2;SDS_P1;SDS_P2;PMS_P1;PMS_P2;Temp;Humidity;BMP_temperature;BMP_pressure;BME280_temperature;BME280_humidity;BME280_pressure;Samples;Min_cycle;Max_cycle;Signal;HPM_P1;HPM_P2
2022/08/18 00:00:28;;;;;;;25.75;10.18;;;;;;;19.93;100.00;98564.00;2189094;81;20963;-61
2022/08/18 00:03:30;;;;;;;39.98;7.08;;;;;;;19.85;100.00;98568.27;2161502;81;21536;-61
2022/08/18 00:06:31;;;;;;;18.32;5.45;;;;;;;19.77;100.00;98581.52;2189243;81;20947;-60
2022/08/18 00:09:31;;;;;;;15.83;5.95;;;;;;;19.79;100.00;98580.06;2189070;81;21027;-59
2022/08/18 00:12:32;;;;;;;40.55;10.50;;;;;;;19.75;100.00;98583.48;2188953;81;20975;-61
2022/08/18 00:15:32;;;;;;;59.58;8.38;;;;;;;19.72;100.00;98582.00;2188829;81;21102;-61
2022/08/18 00:18:32;;;;;;;41.90;7.03;;;;;;;19.69;100.00;98598.76;2188629;81;21532;-61
2022/08/18 00:21:33;;;;;;;16.12;6.03;;;;;;;19.53;100.00;98614.13;2188333;81;21042;-60
2022/08/18 00:24:33;;;;;;;20.92;8.08;;;;;;;19.48;100.00;98610.61;2188964;81;21014;-59
2022/08/18 00:27:34;;;;;;;23.47;11.68;;;;;;;19.51;100.00;98606.30;2188957;81;21039;-60
2022/08/18 00:30:34;;;;;;;29.10;14.15;;;;;;;19.46;100.00;98603.77;2188931;81;20970;-61
2022/08/18 00:33:34;;;;;;;29.27;11.85;;;;;;;19.65;100.00;98609.38;2189016;81;20962;-60
2022/08/18 00:36:35;;;;;;;29.72;9.80;;;;;;;19.51;100.00;98611.63;2188680;81;21026;-60
2022/08/18 00:39:36;;;;;;;23.60;11.77;;;;;;;19.56;100.00;98618.62;2188884;81;21600;-60
2022/08/18 00:42:37;;;;;;;23.80;10.50;;;;;;;19.59;100.00;98620.14;2189052;81;21006;-60
2022/08/18 00:45:38;;;;;;;24.47;12.05;;;;;;;19.61;100.00;98617.32;2189213;81;21006;-60
2022/08/18 00:48:38;;;;;;;28.05;14.03;;;;;;;19.68;100.00;98617.89;2188896;81;21034;-59
2022/08/18 00:51:39;;;;;;;29.52;14.80;;;;;;;19.63;100.00;98614.03;2188804;81;21049;-60
2022/08/18 00:54:40;;;;;;;27.35;13.98;;;;;;;19.64;100.00;98612.53;2188672;81;21544;-61
2022/08/18 00:57:42;;;;;;;28.17;14.50;;;;;;;19.82;100.00;98612.49;2189080;81;21059;-60
2022/08/18 01:00:42;;;;;;;28.92;14.87;;;;;;;19.67;100.00;98618.05;2188793;81;21030;-61
2022/08/18 01:03:43;;;;;;;28.85;14.65;;;;;;;19.72;100.00;98609.94;2188802;81;21421;-61
2022/08/18 01:06:43;;;;;;;31.80;15.03;;;;;;;19.73;100.00;98600.11;2188811;81;20936;-63
2022/08/18 01:09:44;;;;;;;30.77;14.85;;;;;;;19.79;100.00;98603.50;2188567;81;20991;-60
2022/08/18 01:12:44;;;;;;;29.12;15.93;;;;;;;19.67;100.00;98603.41;2188938;81;21027;-65
2022/08/18 01:15:45;;;;;;;31.62;15.08;;;;;;;19.56;100.00;98607.16;2188266;81;21051;-61
2022/08/18 01:21:49;;;;;;;33.70;17.02;;;;;;;19.55;100.00;98605.48;2138252;82;20976;-60
2022/08/18 01:27:54;;;;;;;32.13;11.97;;;;;;;19.46;100.00;98610.42;2138575;82;20996;-60
2022/08/18 01:30:56;;;;;;;25.32;11.20;;;;;;;19.38;100.00;98593.42;2138211;82;20953;-60
2022/08/18 01:33:57;;;;;;;26.20;11.60;;;;;;;19.34;100.00;98599.20;2138299;82;21032;-60
2022/08/18 01:36:58;;;;;;;26.97;14.23;;;;;;;19.39;100.00;98589.78;2158808;82;20983;-60
2022/08/18 01:39:59;;;;;;;28.73;15.85;;;;;;;19.30;100.00;98588.54;2158733;82;20992;-60
2022/08/18 01:43:02;;;;;;;32.25;17.07;;;;;;;19.26;100.00;98591.98;2158625;82;21499;-60
2022/08/18 01:46:03;;;;;;;28.47;16.00;;;;;;;19.22;100.00;98590.63;2138212;82;20984;-60
2022/08/18 01:49:03;;;;;;;28.10;13.65;;;;;;;19.20;100.00;98585.46;2158719;82;21475;-60
2022/08/18 01:52:05;;;;;;;29.25;14.30;;;;;;;19.10;100.00;98575.42;2158893;81;21072;-59
2022/08/18 01:55:07;;;;;;;27.07;15.48;;;;;;;19.14;100.00;98580.77;2158761;82;20999;-60
2022/08/18 01:58:08;;;;;;;27.30;14.15;;;;;;;19.08;100.00;98583.20;2159023;82;20987;-60
2022/08/18 02:01:11;;;;;;;27.07;14.20;;;;;;;18.99;100.00;98584.48;2158744;82;20980;-60
2022/08/18 02:04:12;;;;;;;28.80;15.05;;;;;;;18.90;100.00;98586.72;2138611;82;21466;-61
2022/08/18 02:07:13;;;;;;;26.73;14.00;;;;;;;18.69;100.00;98589.16;2159023;82;21032;-60
2022/08/18 02:10:14;;;;;;;22.95;11.43;;;;;;;18.60;100.00;98588.72;2158851;82;21012;-64
2022/08/18 02:13:15;;;;;;;21.60;8.68;;;;;;;18.78;100.00;98590.58;2158670;82;21465;-61
2022/08/18 02:16:15;;;;;;;23.77;8.43;;;;;;;18.64;100.00;98595.91;2158998;82;20988;-60
2022/08/18 02:19:16;;;;;;;25.00;8.13;;;;;;;18.58;100.00;98596.52;2172321;81;21057;-62
2022/08/18 02:22:17;;;;;;;33.67;8.65;;;;;;;18.54;100.00;98593.31;2188858;81;20998;-62
2022/08/18 02:25:17;;;;;;;51.45;6.30;;;;;;;18.45;100.00;98601.69;2188758;81;20958;-65
2022/08/18 02:28:18;;;;;;;64.42;6.97;;;;;;;18.38;100.00;98605.11;2189087;81;21526;-59
2022/08/18 02:31:18;;;;;;;24.43;9.85;;;;;;;18.22;100.00;98603.92;2189109;81;21105;-60
2022/08/18 02:34:19;;;;;;;30.08;12.18;;;;;;;18.26;100.00;98594.69;2188966;81;21058;-62
2022/08/18 02:37:20;;;;;;;25.40;12.05;;;;;;;18.26;100.00;98602.65;2189004;81;20991;-64
2022/08/18 02:40:21;;;;;;;28.40;14.03;;;;;;;18.29;100.00;98596.22;2188825;81;21493;-60
2022/08/18 02:43:22;;;;;;;27.30;12.63;;;;;;;18.24;100.00;98592.66;2188947;81;20971;-60
2022/08/18 02:46:23;;;;;;;22.00;10.00;;;;;;;18.51;100.00;98593.12;2189074;81;21027;-63
2022/08/18 02:49:24;;;;;;;22.37;9.87;;;;;;;18.52;100.00;98587.34;2189148;81;21030;-63
2022/08/18 02:52:31;;;;;;;26.42;11.22;;;;;;;18.46;100.00;98578.15;2188743;81;21062;-63
2022/08/18 02:55:28;;;;;;;32.95;14.33;;;;;;;18.26;100.00;98584.06;2161865;81;20991;-60
2022/08/18 02:58:28;;;;;;;33.88;14.45;;;;;;;18.20;100.00;98579.33;2189053;81;21465;-60
2022/08/18 03:01:30;;;;;;;36.35;15.03;;;;;;;18.10;100.00;98572.77;2188986;81;21014;-60
2022/08/18 03:04:31;;;;;;;34.38;13.85;;;;;;;18.25;100.00;98568.29;2188836;81;21026;-61
2022/08/18 03:07:32;;;;;;;43.00;19.42;;;;;;;18.11;100.00;98574.42;2188698;81;21517;-60
2022/08/18 03:10:33;;;;;;;25.72;9.40;;;;;;;18.15;100.00;98580.28;2189092;81;20971;-61
2022/08/18 03:13:33;;;;;;;118.55;11.93;;;;;;;18.09;100.00;98590.17;2188907;81;21011;-60
2022/08/18 03:16:34;;;;;;;37.10;10.13;;;;;;;17.95;100.00;98595.46;2189025;81;21063;-60
2022/08/18 03:19:34;;;;;;;27.00;13.43;;;;;;;18.02;100.00;98585.11;2188818;81;20979;-60
2022/08/18 03:22:37;;;;;;;26.87;12.43;;;;;;;18.02;100.00;98591.74;2188788;81;21509;-60
2022/08/18 03:25:37;;;;;;;35.90;11.73;;;;;;;17.98;100.00;98595.16;2161602;81;20991;-59
2022/08/18 03:28:39;;;;;;;19.42;7.58;;;;;;;17.98;100.00;98595.16;2188886;81;21003;-59
2022/08/18 03:31:40;;;;;;;19.48;7.35;;;;;;;17.93;100.00;98598.27;2188977;81;21474;-60
2022/08/18 03:34:41;;;;;;;22.60;9.85;;;;;;;17.93;100.00;98594.76;2188488;81;21046;-59
2022/08/18 03:37:43;;;;;;;27.25;12.58;;;;;;;17.96;100.00;98595.31;2188997;81;21019;-60
2022/08/18 03:40:43;;;;;;;27.62;13.13;;;;;;;17.91;100.00;98608.17;2189310;81;21473;-61
2022/08/18 03:43:44;;;;;;;20.10;8.83;;;;;;;17.94;100.00;98608.38;2188967;81;21055;-61
2022/08/18 03:46:44;;;;;;;28.92;12.93;;;;;;;17.97;100.00;98616.04;2188900;81;20974;-61
2022/08/18 03:49:45;;;;;;;26.35;12.50;;;;;;;17.84;100.00;98613.68;2188724;81;20983;-60
2022/08/18 03:52:47;;;;;;;31.35;14.78;;;;;;;17.74;100.00;98608.91;2188889;81;21015;-61
2022/08/18 03:55:48;;;;;;;31.48;16.30;;;;;;;17.82;100.00;98618.31;2189253;81;21457;-60
2022/08/18 03:58:48;;;;;;;31.75;15.90;;;;;;;17.81;100.00;98618.81;2189006;81;21316;-60
2022/08/18 04:01:49;;;;;;;31.77;17.23;;;;;;;17.96;100.00;98618.38;2188965;81;21106;-61
2022/08/18 04:04:49;;;;;;;31.35;15.28;;;;;;;18.03;100.00;98620.78;2189096;81;20943;-61
2022/08/18 04:07:50;;;;;;;29.42;15.35;;;;;;;18.03;100.00;98626.09;2188852;81;21007;-60
2022/08/18 04:10:51;;;;;;;23.67;11.63;;;;;;;18.30;100.00;98627.06;2189031;81;20979;-61
2022/08/18 04:13:52;;;;;;;27.98;12.65;;;;;;;18.31;100.00;98625.59;2188994;81;20991;-59
2022/08/18 04:16:53;;;;;;;28.27;11.90;;;;;;;18.29;100.00;98623.59;2189125;81;20983;-60
2022/08/18 04:19:54;;;;;;;26.20;11.33;;;;;;;18.42;100.00;98631.20;2188681;81;21063;-60
2022/08/18 04:22:54;;;;;;;22.55;10.10;;;;;;;18.62;100.00;98632.39;2188867;81;21550;-60
2022/08/18 04:25:56;;;;;;;23.70;10.98;;;;;;;18.64;100.00;98635.25;2188881;81;20986;-60
2022/08/18 04:28:58;;;;;;;22.13;9.68;;;;;;;18.61;100.00;98641.38;2188974;81;21034;-59
2022/08/18 04:31:59;;;;;;;23.77;11.68;;;;;;;18.80;100.00;98636.41;2189095;81;21450;-61
2022/08/18 04:34:59;;;;;;;24.63;12.20;;;;;;;18.79;100.00;98645.36;2188722;81;21058;-61
2022/08/18 04:38:00;;;;;;;27.55;12.68;;;;;;;18.88;100.00;98643.17;2189076;81;21014;-59
2022/08/18 04:41:00;;;;;;;23.98;11.88;;;;;;;19.16;100.00;98649.23;2188688;81;21026;-59
2022/08/18 04:44:01;;;;;;;23.80;11.95;;;;;;;19.33;100.00;98648.88;2189069;81;20994;-60
2022/08/18 04:47:01;;;;;;;25.57;12.23;;;;;;;19.49;100.00;98648.67;2188827;81;21010;-60
2022/08/18 04:50:02;;;;;;;24.65;12.95;;;;;;;19.67;100.00;98644.14;2188800;81;20967;-60
2022/08/18 04:56:05;;;;;;;24.18;12.53;;;;;;;20.19;100.00;98651.78;2161284;81;20994;-61
2022/08/18 04:59:05;;;;;;;27.37;13.28;;;;;;;20.28;100.00;98649.48;2189118;81;20947;-60
2022/08/18 05:02:07;;;;;;;28.32;14.53;;;;;;;20.49;100.00;98645.08;2188999;81;21486;-60
2022/08/18 05:05:07;;;;;;;25.60;13.68;;;;;;;20.70;100.00;98638.49;2188963;81;21497;-60
2022/08/18 05:08:08;;;;;;;30.00;15.78;;;;;;;20.98;100.00;98643.56;2189039;81;21028;-60
2022/08/18 05:11:08;;;;;;;27.82;16.15;;;;;;;21.15;100.00;98647.91;2188895;81;21037;-63
2022/08/18 05:14:09;;;;;;;29.10;16.10;;;;;;;21.43;100.00;98644.89;2188769;81;21114;-61
2022/08/18 05:17:10;;;;;;;30.08;16.35;;;;;;;21.65;100.00;98634.08;2188669;81;21489;-62
2022/08/18 05:20:10;;;;;;;29.77;16.50;;;;;;;21.79;100.00;98634.72;2188765;81;21027;-62
2022/08/18 05:23:10;;;;;;;29.75;16.12;;;;;;;21.96;100.00;98640.00;2189070;81;20955;-61
2022/08/18 05:26:13;;;;;;;30.87;16.83;;;;;;;22.25;100.00;98644.73;2188795;81;21014;-60
2022/08/18 05:29:14;;;;;;;31.80;16.48;;;;;;;22.48;100.00;98644.85;2161989;81;21466;-64
2022/08/18 05:32:15;;;;;;;27.13;16.23;;;;;;;22.76;100.00;98643.02;2188869;81;20983;-62
2022/08/18 05:35:15;;;;;;;34.00;17.10;;;;;;;22.95;100.00;98642.23;2188812;81;21023;-65
2022/08/18 05:38:16;;;;;;;29.20;17.20;;;;;;;23.15;100.00;98637.27;2189063;81;21014;-58
2022/08/18 05:41:16;;;;;;;31.80;15.97;;;;;;;23.35;100.00;98642.97;2188877;81;21512;-58
2022/08/18 05:44:18;;;;;;;30.10;15.45;;;;;;;23.62;100.00;98641.55;2189124;81;21509;-61
2022/08/18 05:47:18;;;;;;;29.57;16.00;;;;;;;23.72;100.00;98639.10;2189274;81;21030;-59
2022/08/18 05:50:19;;;;;;;28.97;16.73;;;;;;;23.94;100.00;98638.75;2188732;81;21085;-60
2022/08/18 05:56:45;;;;;;;32.50;16.00;;;;;;;24.19;100.00;98637.95;2188761;81;21025;-58
2022/08/18 05:59:24;;;;;;;31.70;17.10;;;;;;;24.60;100.00;98639.33;2161402;81;20982;-59
2022/08/18 06:02:25;;;;;;;29.70;15.47;;;;;;;24.88;100.00;98648.30;2189355;81;20959;-58
2022/08/18 06:05:25;;;;;;;27.37;14.80;;;;;;;25.13;100.00;98655.12;2189112;81;21047;-59
2022/08/18 06:08:26;;;;;;;28.73;15.53;;;;;;;25.39;100.00;98650.56;2189143;81;20975;-58
2022/08/18 06:11:27;;;;;;;30.17;15.53;;;;;;;25.54;100.00;98647.78;2188957;81;20967;-58
2022/08/18 06:14:27;;;;;;;27.43;15.20;;;;;;;25.67;100.00;98656.45;2188866;81;21001;-59
2022/08/18 06:17:28;;;;;;;28.35;14.83;;;;;;;25.81;100.00;98650.14;2188624;81;21011;-58
2022/08/18 06:20:29;;;;;;;26.93;15.33;;;;;;;26.02;100.00;98650.63;2188793;81;21109;-58
2022/08/18 06:23:30;;;;;;;28.57;14.57;;;;;;;26.24;100.00;98657.25;2189098;81;20995;-58
2022/08/18 06:26:32;;;;;;;31.63;14.17;;;;;;;26.42;100.00;98651.32;2188996;81;20943;-58
2022/08/18 06:29:33;;;;;;;26.07;14.10;;;;;;;26.62;100.00;98654.94;2161722;81;21474;-59
2022/08/18 06:32:33;;;;;;;28.30;14.63;;;;;;;26.74;100.00;98649.02;2188992;81;21011;-58
2022/08/18 06:35:34;;;;;;;26.33;14.00;;;;;;;26.90;100.00;98652.66;2188752;81;21030;-58
2022/08/18 06:41:37;;;;;;;25.60;13.53;;;;;;;27.18;100.00;98653.00;2161569;81;20975;-59
2022/08/18 06:44:37;;;;;;;27.00;13.17;;;;;;;27.28;100.00;98656.64;2188857;81;20975;-59
2022/08/18 06:47:39;;;;;;;27.77;13.63;;;;;;;27.39;100.00;98656.59;2188798;81;21545;-58
2022/08/18 06:50:41;;;;;;;26.50;13.72;;;;;;;27.52;100.00;98657.11;2188830;81;21018;-59
2022/08/18 06:53:41;;;;;;;25.70;13.25;;;;;;;27.53;100.00;98658.25;2188745;81;21027;-59
2022/08/18 06:56:42;;;;;;;28.33;13.40;;;;;;;27.52;100.00;98660.63;2188974;81;21469;-58
2022/08/18 06:59:42;;;;;;;26.47;13.03;;;;;;;27.62;100.00;98668.30;2189159;81;21470;-58
2022/08/18 07:02:42;;;;;;;28.93;13.67;;;;;;;27.77;100.00;98673.45;2189098;81;21031;-59
2022/08/18 07:05:43;;;;;;;27.43;12.30;;;;;;;27.89;100.00;98670.97;2189103;81;20940;-58
2022/08/18 07:08:43;;;;;;;26.30;12.67;;;;;;;28.06;100.00;98670.86;2189091;81;21019;-58
2022/08/18 07:11:44;;;;;;;24.53;12.13;;;;;;;28.14;100.00;98669.30;2188941;81;20975;-59
2022/08/18 07:14:44;;;;;;;25.50;11.70;;;;;;;28.24;100.00;98672.06;2188845;81;21050;-59
2022/08/18 07:17:45;;;;;;;23.93;12.03;;;;;;;28.33;100.00;98673.47;2189373;81;21553;-59
2022/08/18 07:20:45;;;;;;;25.30;12.67;;;;;;;28.43;100.00;98674.37;2174521;81;21059;-59
2022/08/18 07:23:46;;;;;;;26.63;12.37;;;;;;;28.47;100.00;98669.68;2159199;82;21036;-58
2022/08/18 07:26:46;;;;;;;24.40;11.67;;;;;;;28.67;100.00;98674.20;2159380;81;21006;-59
2022/08/18 07:29:47;;;;;;;26.53;11.90;;;;;;;28.77;100.00;98671.87;2159116;81;21020;-59
2022/08/18 07:32:47;;;;;;;24.77;11.07;;;;;;;28.85;100.00;98677.55;2159116;82;20984;-59
2022/08/18 07:35:48;;;;;;;25.50;11.23;;;;;;;29.00;100.00;98669.16;2158965;82;21106;-59
2022/08/18 07:38:49;;;;;;;25.08;11.53;;;;;;;29.13;100.00;98670.41;2159139;82;21845;-59
2022/08/18 07:41:49;;;;;;;24.77;11.93;;;;;;;29.07;100.00;98670.47;2159122;82;20999;-61
2022/08/18 07:44:52;;;;;;;24.67;11.60;;;;;;;29.06;100.00;98668.80;2159116;82;21015;-61
2022/08/18 07:47:52;;;;;;;26.35;11.15;;;;;;;29.19;100.00;98676.81;2159222;82;21961;-59
2022/08/18 07:50:53;;;;;;;23.93;10.90;;;;;;;29.36;100.00;98673.09;2159049;82;20991;-61
2022/08/18 07:53:53;;;;;;;22.98;11.25;;;;;;;29.63;100.00;98674.23;2158753;82;21066;-59
2022/08/18 07:56:54;;;;;;;25.53;10.73;;;;;;;29.74;100.00;98672.16;2159142;82;21031;-61
2022/08/18 07:59:54;;;;;;;23.83;10.83;;;;;;;29.83;100.00;98678.95;2158905;82;21000;-61
2022/08/18 08:02:57;;;;;;;26.73;10.82;;;;;;;30.01;100.00;98676.82;2159064;82;21032;-61
2022/08/18 08:05:58;;;;;;;30.88;11.28;;;;;;;30.12;99.91;98678.48;2138192;82;20973;-59
2022/08/18 08:08:58;;;;;;;23.02;10.90;;;;;;;30.29;99.90;98682.77;2158944;82;21455;-59
2022/08/18 08:11:59;;;;;;;26.52;10.63;;;;;;;30.37;100.00;98676.53;2158774;82;21115;-59
2022/08/18 08:14:59;;;;;;;22.53;10.90;;;;;;;30.53;94.97;98669.70;2159263;82;20980;-58
2022/08/18 08:18:00;;;;;;;24.17;10.67;;;;;;;30.54;96.80;98669.17;2159174;82;21019;-59
2022/08/18 08:21:02;;;;;;;23.98;10.60;;;;;;;30.55;93.51;98673.53;2173384;81;21006;-59
2022/08/18 08:24:03;;;;;;;26.37;11.55;;;;;;;30.66;96.75;98671.92;2161932;81;21425;-59
2022/08/18 08:27:03;;;;;;;23.10;10.77;;;;;;;30.88;91.42;98671.73;2189061;81;20983;-59
2022/08/18 08:30:04;;;;;;;27.60;11.13;;;;;;;30.61;88.88;98672.62;2189366;81;20987;-59
2022/08/18 08:33:04;;;;;;;22.27;10.83;;;;;;;30.63;91.99;98669.17;2189139;81;21075;-59
2022/08/18 08:36:04;;;;;;;27.00;11.07;;;;;;;30.81;87.25;98668.83;2189027;81;20967;-59
2022/08/18 08:39:05;;;;;;;26.20;11.67;;;;;;;30.62;91.20;98675.63;2188814;81;21490;-59
2022/08/18 08:42:06;;;;;;;21.50;10.67;;;;;;;30.73;88.84;98674.86;2188918;81;21481;-59
2022/08/18 08:45:07;;;;;;;24.92;11.50;;;;;;;30.98;90.04;98675.79;2188810;81;20978;-59
2022/08/18 08:48:07;;;;;;;22.73;10.20;;;;;;;31.23;88.66;98674.28;2189015;81;21034;-60
2022/08/18 08:51:08;;;;;;;26.15;10.40;;;;;;;30.99;86.78;98668.78;2188834;81;21003;-59
2022/08/18 08:54:09;;;;;;;23.38;10.93;;;;;;;31.24;88.22;98662.41;2188450;81;21521;-58
2022/08/18 08:57:09;;;;;;;22.97;10.23;;;;;;;31.41;88.14;98663.38;2188894;81;21465;-59
2022/08/18 09:00:13;;;;;;;22.40;9.98;;;;;;;31.65;86.00;98675.64;2188727;81;21480;-59
2022/08/18 09:03:12;;;;;;;21.37;9.55;;;;;;;31.73;85.75;98672.55;2161602;81;20956;-59
2022/08/18 09:06:13;;;;;;;24.55;10.53;;;;;;;31.72;83.79;98668.22;2188670;81;21470;-59
2022/08/18 09:09:13;;;;;;;22.73;10.70;;;;;;;31.69;83.31;98671.38;2188851;81;20974;-59
2022/08/18 09:12:14;;;;;;;27.58;11.38;;;;;;;31.38;83.34;98673.86;2188993;81;21010;-58
2022/08/18 09:15:15;;;;;;;24.80;10.83;;;;;;;31.43;79.21;98662.63;2189077;81;20987;-59
2022/08/18 09:18:16;;;;;;;22.95;10.23;;;;;;;31.10;82.27;98660.41;2188715;81;21742;-59
2022/08/18 09:21:17;;;;;;;24.12;10.50;;;;;;;30.83;85.12;98674.32;2188749;81;21470;-59
2022/08/18 09:24:17;;;;;;;23.75;11.60;;;;;;;30.92;84.81;98681.05;2188892;81;20951;-59
2022/08/18 09:27:18;;;;;;;23.90;10.90;;;;;;;30.92;84.81;98681.05;2189104;81;20945;-59
2022/08/18 09:30:18;;;;;;;27.00;10.83;;;;;;;30.95;80.42;98679.78;2189217;81;20971;-59
2022/08/18 09:33:19;;;;;;;24.32;10.48;;;;;;;30.84;80.46;98681.91;2188780;81;20994;-59
2022/08/18 09:36:20;;;;;;;26.52;10.13;;;;;;;31.31;83.97;98677.20;2188811;81;21058;-59
2022/08/18 09:42:24;;;;;;;25.50;11.63;;;;;;;31.44;79.91;98687.28;2161441;81;21011;-59
2022/08/18 09:45:25;;;;;;;21.97;10.77;;;;;;;31.14;79.99;98681.11;2189205;81;20960;-59
2022/08/18 09:48:26;;;;;;;24.98;10.28;;;;;;;31.44;80.32;98676.98;2188964;81;21026;-59
2022/08/18 09:51:26;;;;;;;21.45;9.53;;;;;;;32.07;79.74;98682.83;2188911;81;20936;-59
2022/08/18 09:54:27;;;;;;;24.17;10.10;;;;;;;32.24;77.12;98682.92;2189040;81;21059;-59
2022/08/18 09:57:28;;;;;;;;;;;;;;;32.40;78.54;98686.81;2191347;81;21067;-59
2022/08/18 10:00:30;;;;;;;22.83;9.43;;;;;;;32.75;78.22;98687.27;2188859;81;20149;-59
2022/08/18 10:03:30;;;;;;;24.15;9.75;;;;;;;33.25;77.18;98685.22;2188752;81;20979;-59
2022/08/18 10:06:31;;;;;;;26.27;9.58;;;;;;;33.51;74.62;98677.49;2188828;81;21469;-60
2022/08/18 10:09:31;;;;;;;20.32;9.13;;;;;;;33.74;74.58;98672.95;2188677;81;20927;-60
2022/08/18 10:12:32;;;;;;;;;;;;;;;33.98;69.56;98671.70;2191474;81;20948;-60
2022/08/18 10:15:33;;;;;;;24.60;9.20;;;;;;;33.80;68.42;98666.55;2188944;81;20098;-61
2022/08/18 10:18:33;;;;;;;20.95;9.18;;;;;;;33.42;69.31;98670.29;2188713;81;21457;-62
2022/08/18 10:21:35;;;;;;;26.23;9.15;;;;;;;33.52;70.83;98667.44;2173267;81;21549;-59
2022/08/18 10:24:35;;;;;;;;;;;;;;;33.73;68.63;98672.66;2161439;82;20988;-59
2022/08/18 10:27:36;;;;;;;20.90;9.33;;;;;;;33.98;67.50;98677.15;2158862;82;20132;-59
2022/08/18 10:30:36;;;;;;;;;;;;;;;34.24;67.82;98685.66;2160964;82;21024;-62
2022/08/18 10:33:37;;;;;;;25.77;9.70;;;;;;;34.17;65.20;98682.30;2158755;82;20394;-59
2022/08/18 10:36:37;;;;;;;;;;;;;;;33.81;66.70;98685.33;2161273;82;21004;-59
2022/08/18 10:39:38;;;;;;;25.37;9.23;;;;;;;33.33;65.69;98686.19;2158942;82;20104;-59
2022/08/18 10:42:39;;;;;;;;;;;;;;;33.28;66.30;98687.98;2161324;82;21058;-59
2022/08/18 10:45:39;;;;;;;21.90;8.90;;;;;;;33.57;66.49;98672.42;2159319;82;20099;-59
2022/08/18 10:48:40;;;;;;;;;;;;;;;33.87;66.37;98671.82;2161287;82;20976;-59
2022/08/18 10:51:41;;;;;;;20.53;8.80;;;;;;;34.06;62.77;98663.64;2158866;82;20116;-59
2022/08/18 10:54:41;;;;;;;;;;;;;;;34.28;63.98;98663.70;2161426;82;21510;-59
2022/08/18 10:57:41;;;;;;;21.57;9.00;;;;;;;34.35;62.51;98655.33;2159058;82;20096;-59
2022/08/18 11:00:42;;;;;;;21.35;9.05;;;;;;;34.42;63.02;98657.88;2158991;82;21015;-59
2022/08/18 11:03:43;;;;;;;;;;;;;;;34.53;62.72;98660.45;2161059;82;21036;-58
2022/08/18 11:06:44;;;;;;;22.32;8.98;;;;;;;34.68;62.54;98651.66;2159015;82;20116;-59
2022/08/18 11:09:44;;;;;;;21.25;8.63;;;;;;;34.73;61.88;98649.52;2158902;82;20972;-59
2022/08/18 11:12:45;;;;;;;21.30;8.33;;;;;;;34.85;60.89;98656.20;2158793;82;21467;-59
2022/08/18 11:15:46;;;;;;;23.52;9.05;;;;;;;34.96;58.04;98644.33;2159129;82;21042;-59
2022/08/18 11:18:47;;;;;;;19.85;9.05;;;;;;;35.15;59.96;98646.13;2159003;82;20991;-59
2022/08/18 11:21:48;;;;;;;19.55;7.60;;;;;;;35.30;60.12;98639.20;2158678;81;21035;-59
2022/08/18 11:24:48;;;;;;;20.57;8.48;;;;;;;35.37;57.80;98640.64;2158749;82;22147;-59
2022/08/18 11:27:49;;;;;;;22.60;8.88;;;;;;;35.56;56.38;98635.59;2159151;82;21517;-59
2022/08/18 11:30:50;;;;;;;22.25;8.30;;;;;;;35.56;56.15;98627.96;2159070;82;21107;-59
2022/08/18 11:33:52;;;;;;;21.37;8.88;;;;;;;35.63;56.77;98623.09;2158854;82;21043;-59
2022/08/18 11:36:52;;;;;;;18.60;7.85;;;;;;;35.76;54.76;98631.36;2158860;82;21490;-59
2022/08/18 11:39:53;;;;;;;19.50;7.83;;;;;;;35.81;53.77;98619.13;2158918;82;20992;-59
2022/08/18 11:42:53;;;;;;;20.48;8.10;;;;;;;35.96;55.08;98613.47;2159005;82;21015;-60
2022/08/18 11:45:54;;;;;;;21.45;8.28;;;;;;;35.71;53.95;98617.68;2158878;82;21002;-59
2022/08/18 11:48:55;;;;;;;21.20;8.15;;;;;;;34.89;52.48;98624.65;2158749;82;21000;-59
2022/08/18 11:51:55;;;;;;;20.97;8.55;;;;;;;34.60;53.07;98618.62;2158833;82;21019;-59
2022/08/18 11:54:56;;;;;;;20.65;8.35;;;;;;;34.83;52.17;98613.43;2158566;82;21531;-59
2022/08/18 11:57:56;;;;;;;20.35;8.35;;;;;;;34.93;52.78;98606.71;2158916;82;21523;-59
2022/08/18 12:00:57;;;;;;;22.17;7.70;;;;;;;35.01;51.92;98595.88;2158970;82;20953;-59
2022/08/18 12:03:58;;;;;;;23.15;8.63;;;;;;;35.28;52.99;98598.54;2158879;82;20952;-59
2022/08/18 12:06:59;;;;;;;22.02;8.33;;;;;;;35.53;52.16;98596.58;2158897;82;20955;-59
2022/08/18 12:10:00;;;;;;;20.90;7.92;;;;;;;35.64;50.80;98587.91;2158541;82;21023;-59
2022/08/18 12:13:01;;;;;;;24.02;8.38;;;;;;;35.79;50.65;98587.70;2158895;82;21032;-59
2022/08/18 12:16:02;;;;;;;22.35;8.00;;;;;;;35.47;49.40;98594.91;2158836;82;21002;-62
2022/08/18 12:19:02;;;;;;;19.40;7.90;;;;;;;35.22;50.33;98579.97;2158656;82;20968;-59
2022/08/18 12:22:03;;;;;;;20.37;7.60;;;;;;;35.06;50.99;98579.58;2173186;81;20996;-59
2022/08/18 12:25:04;;;;;;;19.70;7.78;;;;;;;34.83;51.83;98580.20;2188758;81;21501;-59
2022/08/18 12:28:04;;;;;;;20.80;7.72;;;;;;;34.78;50.34;98574.66;2188982;81;20983;-60
2022/08/18 12:31:04;;;;;;;24.12;7.87;;;;;;;34.86;49.83;98567.97;2188953;81;20975;-59
2022/08/18 12:34:05;;;;;;;22.48;8.10;;;;;;;34.89;51.70;98568.00;2188972;81;21019;-62
2022/08/18 12:37:06;;;;;;;20.52;7.90;;;;;;;34.94;50.77;98554.41;2188807;81;21002;-59
2022/08/18 12:40:07;;;;;;;19.85;7.42;;;;;;;35.11;51.10;98552.35;2188826;81;21002;-60
2022/08/18 12:43:07;;;;;;;20.30;7.55;;;;;;;35.32;51.16;98557.45;2188989;81;20971;-60
2022/08/18 12:46:08;;;;;;;20.85;7.33;;;;;;;35.53;51.37;98557.56;2188773;81;21070;-60
2022/08/18 12:49:09;;;;;;;19.27;7.70;;;;;;;35.66;50.85;98550.82;2188687;81;21042;-62
2022/08/18 12:52:09;;;;;;;20.77;7.20;;;;;;;35.83;50.31;98543.32;2188829;81;21053;-62
2022/08/18 12:55:10;;;;;;;19.87;7.70;;;;;;;35.89;50.24;98527.80;2188627;81;21560;-60
2022/08/18 12:58:10;;;;;;;19.57;7.12;;;;;;;35.89;50.15;98523.16;2188678;81;21439;-59
2022/08/18 13:01:11;;;;;;;20.20;6.97;;;;;;;35.97;49.76;98523.72;2188798;81;20974;-59
2022/08/18 13:04:12;;;;;;;19.30;7.28;;;;;;;35.96;46.99;98523.44;2188961;81;21067;-61
2022/08/18 13:07:13;;;;;;;22.58;7.35;;;;;;;36.11;46.32;98521.32;2188794;81;20995;-59
2022/08/18 13:10:14;;;;;;;21.10;7.55;;;;;;;36.00;45.23;98523.19;2188311;81;21114;-60
2022/08/18 13:13:15;;;;;;;23.02;7.65;;;;;;;35.73;46.54;98522.77;2188657;81;21517;-60
2022/08/18 13:16:16;;;;;;;19.20;6.87;;;;;;;35.64;46.14;98527.91;2188540;81;20979;-59
2022/08/18 13:19:17;;;;;;;16.87;6.75;;;;;;;35.13;46.74;98527.56;2189021;81;20975;-59
2022/08/18 13:22:18;;;;;;;19.70;7.08;;;;;;;35.22;48.21;98532.27;2188587;81;21007;-59
2022/08/18 13:25:19;;;;;;;18.42;6.90;;;;;;;35.58;47.82;98526.80;2188798;81;21025;-62
2022/08/18 13:28:20;;;;;;;19.77;7.67;;;;;;;35.81;47.03;98521.48;2188682;81;21537;-59
2022/08/18 13:31:20;;;;;;;18.42;7.30;;;;;;;35.96;48.56;98520.70;2188769;81;21038;-59
2022/08/18 13:34:21;;;;;;;19.70;7.30;;;;;;;36.29;47.24;98521.35;2188989;81;20971;-59
2022/08/18 13:37:25;;;;;;;21.02;7.40;;;;;;;36.44;46.46;98527.44;2188888;81;21058;-59
2022/08/18 13:40:23;;;;;;;19.80;7.17;;;;;;;36.72;46.59;98524.70;2161621;81;21473;-59
2022/08/18 13:43:24;;;;;;;20.35;7.55;;;;;;;36.86;44.11;98528.56;2188792;81;20983;-59
2022/08/18 13:46:25;;;;;;;22.13;7.45;;;;;;;36.82;45.43;98526.09;2188787;81;21458;-59
2022/08/18 13:49:26;;;;;;;19.20;7.80;;;;;;;36.79;44.14;98535.41;2188728;81;21502;-59
2022/08/18 13:52:26;;;;;;;22.15;7.65;;;;;;;36.53;43.39;98538.89;2189144;81;20959;-59
2022/08/18 13:55:27;;;;;;;21.25;6.90;;;;;;;35.79;44.33;98544.06;2188993;81;21059;-59
2022/08/18 13:58:28;;;;;;;20.32;6.85;;;;;;;35.59;45.87;98546.15;2188544;81;21007;-59
2022/08/18 14:01:30;;;;;;;20.55;7.80;;;;;;;35.76;46.07;98555.51;2188933;81;21023;-59
2022/08/18 14:04:31;;;;;;;20.12;7.30;;;;;;;35.96;45.83;98550.20;2188767;81;21027;-59
2022/08/18 14:07:31;;;;;;;22.93;7.83;;;;;;;35.77;45.71;98547.06;2188925;81;20947;-59
2022/08/18 14:10:32;;;;;;;17.85;7.00;;;;;;;35.65;46.59;98545.92;2188751;81;20974;-59